sensor_id;sensor_type;location;lat;lon;timestamp;pressure;altitude;pressure_sealevel;temperature;humidity
37824;BME280;23667;43.246;26.576;2022-10-31T00:00:47;99712.75;;;14.11;100.00
37824;BME280;23667;43.246;26.576;2022-10-31T00:03:12;99700.22;;;14.18;100.00
37824;BME280;23667;43.246;26.576;2022-10-31T00:05:42;99704.41;;;14.22;100.00
37824;BME280;23667;43.246;26.576;2022-10-31T00:08:08;99702.59;;;14.24;100.00
37824;BME280;23667;43.246;26.576;2022-10-31T00:10:33;99706.72;;;14.30;100.00
37824;BME280;23667;43.246;26.576;2022-10-31T00:12:58;99705.03;;;14.29;100.00
37824;BME280;23667;43.246;26.576;2022-10-31T00:15:24;99713.47;;;14.15;100.00
37824;BME280;23667;43.246;26.576;2022-10-31T00:17:49;99714.25;;;14.17;100.00
37824;BME280;23667;43.246;26.576;2022-10-31T00:20:14;99707.78;;;14.26;100.00
37824;BME280;23667;43.246;26.576;2022-10-31T00:22:40;99707.72;;;14.27;100.00
37824;BME280;23667;43.246;26.576;2022-10-31T00:25:05;99712.63;;;14.15;100.00
37824;BME280;23667;43.246;26.576;2022-10-31T00:27:30;99714.91;;;14.22;100.00
37824;BME280;23667;43.246;26.576;2022-10-31T00:29:56;99717.00;;;14.14;100.00
37824;BME280;23667;43.246;26.576;2022-10-31T00:32:21;99725.97;;;13.86;100.00
37824;BME280;23667;43.246;26.576;2022-10-31T00:34:46;99721.22;;;13.74;100.00
37824;BME280;23667;43.246;26.576;2022-10-31T00:37:11;99728.22;;;13.52;100.00
37824;BME280;23667;43.246;26.576;2022-10-31T00:39:37;99725.41;;;13.56;100.00
37824;BME280;23667;43.246;26.576;2022-10-31T00:42:02;99731.72;;;13.51;100.00
37824;BME280;23667;43.246;26.576;2022-10-31T00:44:27;99729.06;;;13.52;100.00
37824;BME280;23667;43.246;26.576;2022-10-31T00:46:53;99732.97;;;13.64;100.00
37824;BME280;23667;43.246;26.576;2022-10-31T00:49:18;99724.69;;;13.75;100.00
37824;BME280;23667;43.246;26.576;2022-10-31T00:51:43;99728.09;;;13.77;100.00
37824;BME280;23667;43.246;26.576;2022-10-31T00:54:09;99725.78;;;13.69;100.00
37824;BME280;23667;43.246;26.576;2022-10-31T00:56:34;99716.34;;;13.65;100.00
37824;BME280;23667;43.246;26.576;2022-10-31T00:58:59;99714.69;;;13.62;100.00
37824;BME280;23667;43.246;26.576;2022-10-31T01:01:24;99714.13;;;13.54;100.00
37824;BME280;23667;43.246;26.576;2022-10-31T01:03:50;99709.31;;;13.65;100.00
37824;BME280;23667;43.246;26.576;2022-10-31T01:06:15;99704.94;;;13.66;100.00
37824;BME280;23667;43.246;26.576;2022-10-31T01:08:41;99703.03;;;13.48;100.00
37824;BME280;23667;43.246;26.576;2022-10-31T01:11:11;99707.78;;;13.38;100.00
37824;BME280;23667;43.246;26.576;2022-10-31T01:13:36;99716.75;;;13.31;100.00
37824;BME280;23667;43.246;26.576;2022-10-31T01:16:02;99718.63;;;13.27;100.00
37824;BME280;23667;43.246;26.576;2022-10-31T01:18:29;99717.16;;;13.20;100.00
37824;BME280;23667;43.246;26.576;2022-10-31T01:21:02;99720.09;;;13.11;100.00
37824;BME280;23667;43.246;26.576;2022-10-31T01:23:27;99718.22;;;13.14;100.00
37824;BME280;23667;43.246;26.576;2022-10-31T01:26:00;99714.78;;;13.12;100.00
37824;BME280;23667;43.246;26.576;2022-10-31T01:28:25;99720.34;;;13.05;100.00
37824;BME280;23667;43.246;26.576;2022-10-31T01:30:50;99717.19;;;13.18;100.00
37824;BME280;23667;43.246;26.576;2022-10-31T01:33:16;99708.84;;;13.32;100.00
37824;BME280;23667;43.246;26.576;2022-10-31T01:35:41;99708.38;;;13.45;100.00
37824;BME280;23667;43.246;26.576;2022-10-31T01:38:06;99710.09;;;13.46;100.00
37824;BME280;23667;43.246;26.576;2022-10-31T01:40:31;99715.63;;;13.38;100.00
37824;BME280;23667;43.246;26.576;2022-10-31T01:42:57;99712.22;;;13.36;100.00
37824;BME280;23667;43.246;26.576;2022-10-31T01:45:22;99717.78;;;13.27;100.00
37824;BME280;23667;43.246;26.576;2022-10-31T01:47:48;99713.97;;;13.35;100.00
37824;BME280;23667;43.246;26.576;2022-10-31T01:50:24;99708.16;;;13.51;100.00
37824;BME280;23667;43.246;26.576;2022-10-31T01:52:52;99717.94;;;13.46;100.00
37824;BME280;23667;43.246;26.576;2022-10-31T01:55:20;99722.44;;;13.42;100.00
37824;BME280;23667;43.246;26.576;2022-10-31T01:57:48;99718.72;;;13.49;100.00
37824;BME280;23667;43.246;26.576;2022-10-31T02:00:15;99718.97;;;13.65;100.00
37824;BME280;23667;43.246;26.576;2022-10-31T02:02:41;99726.13;;;13.60;100.00
37824;BME280;23667;43.246;26.576;2022-10-31T02:05:08;99721.91;;;13.79;100.00
37824;BME280;23667;43.246;26.576;2022-10-31T02:07:45;99725.91;;;13.88;100.00
37824;BME280;23667;43.246;26.576;2022-10-31T02:10:13;99727.63;;;13.89;100.00
37824;BME280;23667;43.246;26.576;2022-10-31T02:12:39;99725.84;;;13.89;100.00
37824;BME280;23667;43.246;26.576;2022-10-31T02:15:06;99717.63;;;13.77;100.00
37824;BME280;23667;43.246;26.576;2022-10-31T02:17:31;99724.50;;;13.79;100.00
37824;BME280;23667;43.246;26.576;2022-10-31T02:25:00;99720.84;;;13.83;100.00
37824;BME280;23667;43.246;26.576;2022-10-31T02:40:02;99727.19;;;13.56;100.00
37824;BME280;23667;43.246;26.576;2022-10-31T02:42:34;99722.34;;;13.45;100.00
37824;BME280;23667;43.246;26.576;2022-10-31T02:45:07;99724.41;;;13.37;100.00
37824;BME280;23667;43.246;26.576;2022-10-31T02:47:33;99717.56;;;13.33;100.00
37824;BME280;23667;43.246;26.576;2022-10-31T02:52:29;99727.88;;;13.12;100.00
37824;BME280;23667;43.246;26.576;2022-10-31T02:54:55;99728.47;;;13.20;100.00
37824;BME280;23667;43.246;26.576;2022-10-31T02:57:23;99728.09;;;13.06;100.00
37824;BME280;23667;43.246;26.576;2022-10-31T02:59:50;99735.28;;;13.01;100.00
37824;BME280;23667;43.246;26.576;2022-10-31T03:02:21;99740.69;;;12.96;100.00
37824;BME280;23667;43.246;26.576;2022-10-31T03:05:02;99747.00;;;12.91;100.00
37824;BME280;23667;43.246;26.576;2022-10-31T03:10:03;99754.00;;;12.90;100.00
37824;BME280;23667;43.246;26.576;2022-10-31T03:12:30;99754.09;;;12.87;100.00
37824;BME280;23667;43.246;26.576;2022-10-31T03:17:32;99756.59;;;12.65;100.00
37824;BME280;23667;43.246;26.576;2022-10-31T03:19:58;99765.03;;;12.73;100.00
37824;BME280;23667;43.246;26.576;2022-10-31T03:22:27;99768.72;;;12.68;100.00
37824;BME280;23667;43.246;26.576;2022-10-31T03:24:53;99775.72;;;12.67;100.00
37824;BME280;23667;43.246;26.576;2022-10-31T03:27:24;99773.91;;;12.69;100.00
37824;BME280;23667;43.246;26.576;2022-10-31T03:29:50;99775.06;;;12.61;100.00
37824;BME280;23667;43.246;26.576;2022-10-31T03:34:53;99785.34;;;12.67;100.00
37824;BME280;23667;43.246;26.576;2022-10-31T03:37:20;99787.22;;;12.88;100.00
37824;BME280;23667;43.246;26.576;2022-10-31T03:39:48;99797.09;;;12.80;100.00
37824;BME280;23667;43.246;26.576;2022-10-31T03:42:24;99799.22;;;12.69;100.00
37824;BME280;23667;43.246;26.576;2022-10-31T03:44:51;99793.19;;;12.67;100.00
37824;BME280;23667;43.246;26.576;2022-10-31T03:47:18;99796.97;;;12.58;100.00
37824;BME280;23667;43.246;26.576;2022-10-31T03:49:43;99802.09;;;12.35;100.00
37824;BME280;23667;43.246;26.576;2022-10-31T03:52:12;99810.38;;;12.21;100.00
37824;BME280;23667;43.246;26.576;2022-10-31T03:54:44;99805.00;;;11.97;100.00
37824;BME280;23667;43.246;26.576;2022-10-31T03:57:21;99811.75;;;12.04;100.00
37824;BME280;23667;43.246;26.576;2022-10-31T04:00:23;99814.13;;;11.82;100.00
37824;BME280;23667;43.246;26.576;2022-10-31T04:02:42;99812.03;;;11.95;100.00
37824;BME280;23667;43.246;26.576;2022-10-31T04:05:10;99818.44;;;11.85;100.00
37824;BME280;23667;43.246;26.576;2022-10-31T04:07:38;99817.19;;;11.98;100.00
37824;BME280;23667;43.246;26.576;2022-10-31T04:10:07;99811.75;;;12.04;100.00
37824;BME280;23667;43.246;26.576;2022-10-31T04:12:33;99815.16;;;12.35;100.00
37824;BME280;23667;43.246;26.576;2022-10-31T04:14:59;99812.91;;;12.50;100.00
37824;BME280;23667;43.246;26.576;2022-10-31T04:17:27;99814.88;;;12.70;100.00
37824;BME280;23667;43.246;26.576;2022-10-31T04:19:54;99817.06;;;12.83;100.00
37824;BME280;23667;43.246;26.576;2022-10-31T04:22:19;99811.50;;;12.92;100.00
37824;BME280;23667;43.246;26.576;2022-10-31T04:24:45;99815.19;;;12.86;100.00
37824;BME280;23667;43.246;26.576;2022-10-31T04:27:10;99820.63;;;12.80;100.00
37824;BME280;23667;43.246;26.576;2022-10-31T04:29:35;99825.84;;;12.82;100.00
37824;BME280;23667;43.246;26.576;2022-10-31T04:32:01;99818.94;;;13.04;100.00
37824;BME280;23667;43.246;26.576;2022-10-31T04:34:26;99826.50;;;13.13;100.00
37824;BME280;23667;43.246;26.576;2022-10-31T04:36:51;99834.34;;;13.13;100.00
37824;BME280;23667;43.246;26.576;2022-10-31T04:39:17;99829.25;;;13.09;100.00
37824;BME280;23667;43.246;26.576;2022-10-31T04:41:42;99840.56;;;13.36;100.00
37824;BME280;23667;43.246;26.576;2022-10-31T04:44:07;99841.75;;;13.27;100.00
37824;BME280;23667;43.246;26.576;2022-10-31T04:46:32;99846.41;;;13.42;100.00
37824;BME280;23667;43.246;26.576;2022-10-31T04:48:58;99848.75;;;13.52;100.00
37824;BME280;23667;43.246;26.576;2022-10-31T04:51:23;99845.25;;;13.51;100.00
37824;BME280;23667;43.246;26.576;2022-10-31T04:53:48;99843.53;;;13.50;100.00
37824;BME280;23667;43.246;26.576;2022-10-31T04:56:14;99848.59;;;13.31;100.00
37824;BME280;23667;43.246;26.576;2022-10-31T04:58:39;99854.63;;;13.33;100.00
37824;BME280;23667;43.246;26.576;2022-10-31T05:01:04;99867.22;;;13.47;100.00
37824;BME280;23667;43.246;26.576;2022-10-31T05:03:30;99868.66;;;13.31;100.00
37824;BME280;23667;43.246;26.576;2022-10-31T05:05:55;99868.78;;;13.28;100.00
37824;BME280;23667;43.246;26.576;2022-10-31T05:08:20;99869.88;;;13.20;100.00
37824;BME280;23667;43.246;26.576;2022-10-31T05:10:45;99873.22;;;13.26;100.00
37824;BME280;23667;43.246;26.576;2022-10-31T05:13:11;99870.50;;;13.29;100.00
37824;BME280;23667;43.246;26.576;2022-10-31T05:15:36;99870.22;;;13.36;100.00
37824;BME280;23667;43.246;26.576;2022-10-31T05:18:01;99868.53;;;13.35;100.00
37824;BME280;23667;43.246;26.576;2022-10-31T05:20:27;99872.34;;;13.50;100.00
37824;BME280;23667;43.246;26.576;2022-10-31T05:22:54;99880.91;;;13.55;100.00
37824;BME280;23667;43.246;26.576;2022-10-31T05:25:20;99884.78;;;13.69;100.00
37824;BME280;23667;43.246;26.576;2022-10-31T05:27:46;99882.25;;;13.91;100.00
37824;BME280;23667;43.246;26.576;2022-10-31T05:30:13;99883.25;;;14.10;100.00
37824;BME280;23667;43.246;26.576;2022-10-31T05:32:39;99886.44;;;14.40;100.00
37824;BME280;23667;43.246;26.576;2022-10-31T05:35:05;99892.81;;;14.78;100.00
37824;BME280;23667;43.246;26.576;2022-10-31T05:37:33;99896.16;;;15.04;100.00
37824;BME280;23667;43.246;26.576;2022-10-31T05:39:58;99891.84;;;15.23;100.00
37824;BME280;23667;43.246;26.576;2022-10-31T05:42:23;99908.19;;;15.51;100.00
37824;BME280;23667;43.246;26.576;2022-10-31T05:44:49;99908.63;;;15.60;100.00
37824;BME280;23667;43.246;26.576;2022-10-31T05:47:14;99910.84;;;15.71;100.00
37824;BME280;23667;43.246;26.576;2022-10-31T05:49:39;99908.38;;;15.66;100.00
37824;BME280;23667;43.246;26.576;2022-10-31T05:52:04;99912.19;;;15.39;100.00
37824;BME280;23667;43.246;26.576;2022-10-31T05:54:30;99916.09;;;15.71;100.00
37824;BME280;23667;43.246;26.576;2022-10-31T05:56:55;99910.75;;;15.52;100.00
37824;BME280;23667;43.246;26.576;2022-10-31T05:59:20;99918.31;;;15.60;100.00
37824;BME280;23667;43.246;26.576;2022-10-31T06:01:46;99905.97;;;15.62;100.00
37824;BME280;23667;43.246;26.576;2022-10-31T06:04:11;99914.31;;;15.72;100.00
37824;BME280;23667;43.246;26.576;2022-10-31T06:06:36;99905.88;;;15.84;100.00
37824;BME280;23667;43.246;26.576;2022-10-31T06:09:01;99904.16;;;15.62;100.00
37824;BME280;23667;43.246;26.576;2022-10-31T06:11:27;99905.63;;;15.49;100.00
37824;BME280;23667;43.246;26.576;2022-10-31T06:13:52;99915.25;;;15.71;100.00
37824;BME280;23667;43.246;26.576;2022-10-31T06:16:17;99924.03;;;15.69;100.00
37824;BME280;23667;43.246;26.576;2022-10-31T06:18:43;99928.25;;;15.53;100.00
37824;BME280;23667;43.246;26.576;2022-10-31T06:21:08;99923.03;;;15.52;100.00
37824;BME280;23667;43.246;26.576;2022-10-31T06:23:33;99920.50;;;15.50;100.00
37824;BME280;23667;43.246;26.576;2022-10-31T06:25:58;99926.66;;;15.49;100.00
37824;BME280;23667;43.246;26.576;2022-10-31T06:28:24;99931.91;;;15.90;100.00
37824;BME280;23667;43.246;26.576;2022-10-31T06:30:49;99931.78;;;16.31;100.00
37824;BME280;23667;43.246;26.576;2022-10-31T06:33:14;99936.00;;;16.90;100.00
37824;BME280;23667;43.246;26.576;2022-10-31T06:35:44;99938.03;;;17.72;100.00
37824;BME280;23667;43.246;26.576;2022-10-31T06:38:09;99945.09;;;18.22;100.00
37824;BME280;23667;43.246;26.576;2022-10-31T06:40:35;99941.34;;;18.26;100.00
37824;BME280;23667;43.246;26.576;2022-10-31T06:43:00;99938.59;;;18.28;100.00
37824;BME280;23667;43.246;26.576;2022-10-31T06:45:26;99943.53;;;18.18;100.00
37824;BME280;23667;43.246;26.576;2022-10-31T06:47:52;99949.47;;;18.06;100.00
37824;BME280;23667;43.246;26.576;2022-10-31T06:50:18;99946.72;;;18.40;100.00
37824;BME280;23667;43.246;26.576;2022-10-31T06:52:43;99945.53;;;18.78;100.00
37824;BME280;23667;43.246;26.576;2022-10-31T06:55:08;99937.84;;;18.89;100.00
37824;BME280;23667;43.246;26.576;2022-10-31T06:57:33;99942.22;;;18.74;100.00
37824;BME280;23667;43.246;26.576;2022-10-31T06:59:59;99950.59;;;18.17;100.00
37824;BME280;23667;43.246;26.576;2022-10-31T07:02:24;99945.50;;;17.81;100.00
37824;BME280;23667;43.246;26.576;2022-10-31T07:04:49;99940.06;;;17.15;100.00
37824;BME280;23667;43.246;26.576;2022-10-31T07:07:14;99932.16;;;17.15;100.00
37824;BME280;23667;43.246;26.576;2022-10-31T07:09:40;99936.31;;;17.88;100.00
37824;BME280;23667;43.246;26.576;2022-10-31T07:12:05;99926.66;;;18.21;100.00
37824;BME280;23667;43.246;26.576;2022-10-31T07:14:30;99935.13;;;19.51;100.00
37824;BME280;23667;43.246;26.576;2022-10-31T07:16:56;99937.56;;;19.54;100.00
37824;BME280;23667;43.246;26.576;2022-10-31T07:19:21;99938.09;;;19.75;100.00
37824;BME280;23667;43.246;26.576;2022-10-31T07:21:46;99935.34;;;21.02;100.00
37824;BME280;23667;43.246;26.576;2022-10-31T07:24:12;99941.00;;;22.14;93.84
37824;BME280;23667;43.246;26.576;2022-10-31T07:26:37;99938.56;;;21.47;91.82
37824;BME280;23667;43.246;26.576;2022-10-31T07:29:02;99932.88;;;20.59;96.33
37824;BME280;23667;43.246;26.576;2022-10-31T07:31:27;99934.75;;;20.43;97.60
37824;BME280;23667;43.246;26.576;2022-10-31T07:33:53;99936.22;;;19.32;100.00
37824;BME280;23667;43.246;26.576;2022-10-31T07:36:18;99932.91;;;19.73;100.00
37824;BME280;23667;43.246;26.576;2022-10-31T07:38:43;99938.59;;;20.80;99.92
37824;BME280;23667;43.246;26.576;2022-10-31T07:41:09;99941.13;;;21.49;95.60
37824;BME280;23667;43.246;26.576;2022-10-31T07:43:34;99935.16;;;22.09;90.72
37824;BME280;23667;43.246;26.576;2022-10-31T07:46:00;99935.53;;;22.78;87.05
37824;BME280;23667;43.246;26.576;2022-10-31T07:48:25;99943.06;;;21.98;85.63
37824;BME280;23667;43.246;26.576;2022-10-31T07:50:50;99935.69;;;22.27;85.13
37824;BME280;23667;43.246;26.576;2022-10-31T07:53:16;99935.59;;;21.90;86.82
37824;BME280;23667;43.246;26.576;2022-10-31T07:55:41;99934.97;;;21.99;87.76
37824;BME280;23667;43.246;26.576;2022-10-31T07:58:08;99933.03;;;21.89;87.59
37824;BME280;23667;43.246;26.576;2022-10-31T08:00:34;99921.38;;;22.54;84.86
37824;BME280;23667;43.246;26.576;2022-10-31T08:03:10;99934.00;;;21.49;87.08
37824;BME280;23667;43.246;26.576;2022-10-31T08:05:36;99925.84;;;21.78;89.30
37824;BME280;23667;43.246;26.576;2022-10-31T08:08:02;99932.75;;;22.56;84.68
37824;BME280;23667;43.246;26.576;2022-10-31T08:10:27;99938.13;;;23.50;82.25
37824;BME280;23667;43.246;26.576;2022-10-31T08:13:06;99937.78;;;23.55;80.43
37824;BME280;23667;43.246;26.576;2022-10-31T08:15:32;99940.34;;;23.68;79.67
37824;BME280;23667;43.246;26.576;2022-10-31T08:17:59;99937.16;;;24.86;78.34
37824;BME280;23667;43.246;26.576;2022-10-31T08:20:24;99933.31;;;26.26;73.37
37824;BME280;23667;43.246;26.576;2022-10-31T08:22:56;99939.59;;;25.22;71.80
37824;BME280;23667;43.246;26.576;2022-10-31T08:25:22;99933.75;;;24.18;75.24
37824;BME280;23667;43.246;26.576;2022-10-31T08:27:51;99938.94;;;25.92;71.58
37824;BME280;23667;43.246;26.576;2022-10-31T08:30:17;99935.91;;;26.47;65.33
37824;BME280;23667;43.246;26.576;2022-10-31T08:32:43;99939.97;;;25.17;66.87
37824;BME280;23667;43.246;26.576;2022-10-31T08:35:08;99939.25;;;23.24;71.23
37824;BME280;23667;43.246;26.576;2022-10-31T08:37:33;99944.28;;;23.86;73.60
37824;BME280;23667;43.246;26.576;2022-10-31T08:39:58;99937.97;;;26.24;67.50
37824;BME280;23667;43.246;26.576;2022-10-31T08:42:24;99944.34;;;25.18;67.16
37824;BME280;23667;43.246;26.576;2022-10-31T08:44:49;99934.03;;;26.28;65.08
37824;BME280;23667;43.246;26.576;2022-10-31T08:47:14;99932.94;;;27.19;62.85
37824;BME280;23667;43.246;26.576;2022-10-31T08:49:40;99938.94;;;26.73;62.49
37824;BME280;23667;43.246;26.576;2022-10-31T08:52:05;99945.00;;;26.94;62.58
37824;BME280;23667;43.246;26.576;2022-10-31T08:54:33;99948.47;;;25.85;63.08
37824;BME280;23667;43.246;26.576;2022-10-31T08:56:59;99946.81;;;24.10;67.65
37824;BME280;23667;43.246;26.576;2022-10-31T08:59:24;99944.66;;;23.81;71.49
37824;BME280;23667;43.246;26.576;2022-10-31T09:01:49;99950.78;;;25.78;66.97
37824;BME280;23667;43.246;26.576;2022-10-31T09:04:14;99948.56;;;27.24;63.82
37824;BME280;23667;43.246;26.576;2022-10-31T09:06:40;99953.63;;;25.56;63.64
37824;BME280;23667;43.246;26.576;2022-10-31T09:09:05;99947.97;;;27.79;60.84
37824;BME280;23667;43.246;26.576;2022-10-31T09:11:31;99948.66;;;28.73;58.13
37824;BME280;23667;43.246;26.576;2022-10-31T09:13:56;99949.97;;;27.38;58.54
37824;BME280;23667;43.246;26.576;2022-10-31T09:16:21;99952.28;;;26.23;61.33
37824;BME280;23667;43.246;26.576;2022-10-31T09:18:46;99947.16;;;27.00;59.50
37824;BME280;23667;43.246;26.576;2022-10-31T09:21:12;99952.16;;;25.73;61.25
37824;BME280;23667;43.246;26.576;2022-10-31T09:23:37;99934.81;;;26.09;62.17
37824;BME280;23667;43.246;26.576;2022-10-31T09:26:02;99945.25;;;25.49;62.11
37824;BME280;23667;43.246;26.576;2022-10-31T09:28:28;99931.91;;;24.96;66.45
37824;BME280;23667;43.246;26.576;2022-10-31T09:30:54;99941.38;;;25.53;62.58
37824;BME280;23667;43.246;26.576;2022-10-31T09:33:19;99930.34;;;24.39;67.13
37824;BME280;23667;43.246;26.576;2022-10-31T09:35:45;99930.50;;;26.97;62.42
37824;BME280;23667;43.246;26.576;2022-10-31T09:38:17;99935.53;;;27.78;58.30
37824;BME280;23667;43.246;26.576;2022-10-31T09:46:01;99931.25;;;29.67;52.77
37824;BME280;23667;43.246;26.576;2022-10-31T09:51:18;99930.81;;;27.99;55.13
37824;BME280;23667;43.246;26.576;2022-10-31T09:53:59;99933.00;;;25.47;60.45
37824;BME280;23667;43.246;26.576;2022-10-31T09:56:26;99924.75;;;25.71;61.37
37824;BME280;23667;43.246;26.576;2022-10-31T09:58:56;99924.19;;;26.98;59.65
37824;BME280;23667;43.246;26.576;2022-10-31T10:06:38;99915.78;;;23.64;66.21
37824;BME280;23667;43.246;26.576;2022-10-31T10:09:07;99925.72;;;23.27;67.75
37824;BME280;23667;43.246;26.576;2022-10-31T10:21:31;99909.53;;;23.99;68.94
37824;BME280;23667;43.246;26.576;2022-10-31T10:24:05;99911.38;;;23.41;70.33
37824;BME280;23667;43.246;26.576;2022-10-31T10:26:37;99902.47;;;23.17;71.42
37824;BME280;23667;43.246;26.576;2022-10-31T10:29:28;99901.44;;;22.72;72.50
37824;BME280;23667;43.246;26.576;2022-10-31T10:31:48;99902.78;;;22.17;74.10
37824;BME280;23667;43.246;26.576;2022-10-31T10:34:20;99900.81;;;21.56;75.49
37824;BME280;23667;43.246;26.576;2022-10-31T10:36:58;99896.13;;;21.73;77.83
37824;BME280;23667;43.246;26.576;2022-10-31T10:39:27;99889.66;;;21.77;78.35
37824;BME280;23667;43.246;26.576;2022-10-31T10:41:55;99892.50;;;21.74;78.74
37824;BME280;23667;43.246;26.576;2022-10-31T10:44:43;99892.19;;;21.66;78.96
37824;BME280;23667;43.246;26.576;2022-10-31T10:47:31;99889.53;;;21.66;80.58
37824;BME280;23667;43.246;26.576;2022-10-31T10:50:18;99881.56;;;21.78;79.55
37824;BME280;23667;43.246;26.576;2022-10-31T11:00:17;99882.84;;;21.60;81.33
37824;BME280;23667;43.246;26.576;2022-10-31T11:02:43;99882.84;;;21.60;81.35
37824;BME280;23667;43.246;26.576;2022-10-31T11:05:13;99886.34;;;21.86;79.60
37824;BME280;23667;43.246;26.576;2022-10-31T11:07:39;99878.66;;;21.94;79.67
37824;BME280;23667;43.246;26.576;2022-10-31T11:10:05;99878.16;;;21.76;80.14
37824;BME280;23667;43.246;26.576;2022-10-31T11:12:38;99882.09;;;21.71;79.78
37824;BME280;23667;43.246;26.576;2022-10-31T11:15:15;99878.81;;;21.54;80.04
37824;BME280;23667;43.246;26.576;2022-10-31T11:17:41;99871.38;;;21.47;81.35
37824;BME280;23667;43.246;26.576;2022-10-31T11:22:35;99871.19;;;21.63;80.47
37824;BME280;23667;43.246;26.576;2022-10-31T11:25:00;99868.22;;;21.42;80.94
37824;BME280;23667;43.246;26.576;2022-10-31T11:27:25;99866.13;;;21.32;82.13
37824;BME280;23667;43.246;26.576;2022-10-31T11:29:51;99858.44;;;21.42;82.14
37824;BME280;23667;43.246;26.576;2022-10-31T11:32:18;99862.22;;;21.76;81.51
37824;BME280;23667;43.246;26.576;2022-10-31T11:34:44;99856.91;;;21.89;79.93
37824;BME280;23667;43.246;26.576;2022-10-31T11:39:43;99849.47;;;21.94;78.94
37824;BME280;23667;43.246;26.576;2022-10-31T11:42:09;99853.38;;;22.01;78.67
37824;BME280;23667;43.246;26.576;2022-10-31T11:44:34;99842.59;;;22.29;79.22
37824;BME280;23667;43.246;26.576;2022-10-31T11:47:01;99846.63;;;22.34;78.33
37824;BME280;23667;43.246;26.576;2022-10-31T11:49:37;99841.47;;;22.20;78.24
37824;BME280;23667;43.246;26.576;2022-10-31T11:52:14;99841.84;;;21.90;77.91
37824;BME280;23667;43.246;26.576;2022-10-31T11:57:07;99837.84;;;22.08;77.86
37824;BME280;23667;43.246;26.576;2022-10-31T11:59:50;99836.56;;;22.14;78.67
37824;BME280;23667;43.246;26.576;2022-10-31T12:02:18;99834.25;;;22.22;77.21
37824;BME280;23667;43.246;26.576;2022-10-31T12:04:44;99841.00;;;22.26;76.67
37824;BME280;23667;43.246;26.576;2022-10-31T12:07:10;99842.22;;;22.22;76.82
37824;BME280;23667;43.246;26.576;2022-10-31T12:09:36;99848.59;;;22.43;76.04
37824;BME280;23667;43.246;26.576;2022-10-31T12:22:26;99840.03;;;22.27;77.71
37824;BME280;23667;43.246;26.576;2022-10-31T12:27:41;99830.13;;;22.66;77.18
37824;BME280;23667;43.246;26.576;2022-10-31T12:40:53;99837.59;;;23.54;74.43
37824;BME280;23667;43.246;26.576;2022-10-31T12:46:02;99836.81;;;23.18;73.19
37824;BME280;23667;43.246;26.576;2022-10-31T12:48:38;99838.91;;;23.26;75.19
37824;BME280;23667;43.246;26.576;2022-10-31T12:59:11;99848.75;;;22.77;73.39
37824;BME280;23667;43.246;26.576;2022-10-31T13:01:51;99842.34;;;22.80;73.24
37824;BME280;23667;43.246;26.576;2022-10-31T13:07:05;99846.31;;;22.74;73.53
37824;BME280;23667;43.246;26.576;2022-10-31T13:09:36;99849.16;;;22.36;74.93
37824;BME280;23667;43.246;26.576;2022-10-31T13:12:03;99846.44;;;22.73;75.84
37824;BME280;23667;43.246;26.576;2022-10-31T13:17:03;99848.66;;;22.31;74.59
37824;BME280;23667;43.246;26.576;2022-10-31T13:19:38;99850.50;;;22.17;75.06
37824;BME280;23667;43.246;26.576;2022-10-31T13:27:21;99850.66;;;21.90;76.37
37824;BME280;23667;43.246;26.576;2022-10-31T13:29:54;99848.59;;;22.07;77.16
37824;BME280;23667;43.246;26.576;2022-10-31T13:32:22;99845.94;;;22.19;75.93
37824;BME280;23667;43.246;26.576;2022-10-31T13:34:50;99847.59;;;22.33;75.82
37824;BME280;23667;43.246;26.576;2022-10-31T13:37:40;99845.59;;;22.11;75.25
37824;BME280;23667;43.246;26.576;2022-10-31T13:45:13;99848.03;;;21.77;76.85
37824;BME280;23667;43.246;26.576;2022-10-31T13:47:40;99845.78;;;21.84;76.81
37824;BME280;23667;43.246;26.576;2022-10-31T13:50:18;99852.38;;;21.78;76.63
37824;BME280;23667;43.246;26.576;2022-10-31T13:52:44;99858.16;;;21.96;76.42
37824;BME280;23667;43.246;26.576;2022-10-31T13:57:54;99858.19;;;21.71;77.22
37824;BME280;23667;43.246;26.576;2022-10-31T14:02:46;99861.50;;;21.49;77.61
37824;BME280;23667;43.246;26.576;2022-10-31T14:07:43;99866.69;;;21.25;78.44
37824;BME280;23667;43.246;26.576;2022-10-31T14:13:07;99863.78;;;21.02;79.38
37824;BME280;23667;43.246;26.576;2022-10-31T14:15:33;99863.78;;;21.02;79.68
37824;BME280;23667;43.246;26.576;2022-10-31T14:18:01;99865.16;;;21.08;80.13
37824;BME280;23667;43.246;26.576;2022-10-31T14:20:40;99864.72;;;21.01;80.25
37824;BME280;23667;43.246;26.576;2022-10-31T14:25:49;99865.75;;;20.86;81.58
37824;BME280;23667;43.246;26.576;2022-10-31T14:33:50;99866.16;;;20.53;84.22
37824;BME280;23667;43.246;26.576;2022-10-31T14:36:17;99862.88;;;20.35;85.45
37824;BME280;23667;43.246;26.576;2022-10-31T14:48:51;99862.22;;;19.90;90.52
37824;BME280;23667;43.246;26.576;2022-10-31T14:51:22;99867.50;;;19.75;92.41
37824;BME280;23667;43.246;26.576;2022-10-31T14:53:50;99868.84;;;19.68;94.57
37824;BME280;23667;43.246;26.576;2022-10-31T14:56:19;99870.34;;;19.58;98.95
37824;BME280;23667;43.246;26.576;2022-10-31T14:58:45;99869.34;;;19.45;100.00
37824;BME280;23667;43.246;26.576;2022-10-31T15:01:21;99867.81;;;19.26;100.00
37824;BME280;23667;43.246;26.576;2022-10-31T15:03:47;99863.00;;;19.19;100.00
37824;BME280;23667;43.246;26.576;2022-10-31T15:06:13;99870.50;;;19.10;100.00
37824;BME280;23667;43.246;26.576;2022-10-31T15:08:40;99876.69;;;19.11;100.00
37824;BME280;23667;43.246;26.576;2022-10-31T15:16:12;99876.22;;;18.73;100.00